Tiempo atmosférico en la estación meteorológica de Elgeta, Gipuzkoa (470 m.)



Fecha
DESCASC
Temp. máxima en grados centígrados (hora)
DESCASC
Temp. mínima en grados centígrados (hora)
DESCASC
Temp. media en grados centígrados
DESCASC
Racha de viento máxima en m/sg (hora)
DESCASC
Velocidad máxima media en intervalos de 10 minutos(hora)
DESCASC
Precipitaciones diarias en mm
DESCASC
Precipitaciones de 00:00 a 06:00 en mm
DESCASC
Precipitaciones de 06:00 a 12:00 en mm
DESCASC
Precipitaciones de 12:00 a 18:00 en mm
DESCASC
Precipitaciones de 18:00 a 24:00 en mm
DESCASC
19-04-2018 24.9 (17:00) 13.8 (07:10) 19.3 10.28 (11:40) 3.89 (13:00) 0 0 0 0 0
18-04-2018 26.4 (16:40) 12.3 (07:10) 19.3 8.33 (15:00) 3.89 (15:00) 0 0 0 0 0
17-04-2018 24.8 (17:00) 8.6 (03:00) 16.7 5.83 (17:10) 2.78 (17:10) 0 0 0 0 0
16-04-2018 14 (14:30) 6.8 (07:30) 10.4 5.83 (05:40) 2.78 (23:10) 9.8 8.6 1.2 0 0
15-04-2018 16 (12:00) 9 (00:00) 12.5 7.5 (01:20) 3.61 (01:30) 0 0 0 0 0
14-04-2018 17 (18:10) 7.5 (00:00) 12.3 5.83 (23:30) 3.33 (23:20) 1 0.8 0 0.2 0
13-04-2018 14.4 (16:50) 7.1 (00:00) 10.7 5.83 (17:50) 3.06 (15:20) 1.4 0 1 0.4 0
12-04-2018 14 (18:20) 6.7 (00:00) 10.3 9.17 (07:30) 3.89 (07:20) 26.8 17.4 9.4 0 0
11-04-2018 8 (17:20) 3 (00:00) 5.5 10.83 (15:50) 4.17 (12:00) 43.8 7.4 16.2 9.2 11
10-04-2018 8 (14:10) 3 (00:00) 5.5 7.5 (07:00) 3.33 (07:00) 35.6 0 3.8 15.6 16.2
09-04-2018 9.3 (11:20) 4.1 (00:00) 6.7 6.67 (15:10) 2.5 (15:10) 23.2 0 0 19.4 3.8
08-04-2018 14.6 (17:40) 6.6 (00:00) 10.6 6.39 (10:00) 2.78 (10:10) 7.8 0.2 7.6 0 0
07-04-2018 13.7 (00:00) 7.4 (00:00) 10.5 11.39 (12:10) 5.83 (12:00) 12.6 0 0.4 4.6 7.6
06-04-2018 21.9 (15:20) 12 (00:00) 16.9 12.22 (19:30) 5.83 (09:10) 0 0 0 0 0
05-04-2018 19.2 (17:40) 5.8 (00:00) 12.5 9.72 (23:59) 3.33 (23:59) 0.8 0.8 0 0 0
04-04-2018 16.7 (15:00) 7.7 (00:00) 12.2 11.39 (04:30) 4.72 (01:10) 10.8 0 0 0.6 10.2
03-04-2018 17.4 (18:00) 10.7 (00:00) 14 15 (10:30) 4.72 (02:10) 0.2 0 0 0.2 0
02-04-2018 20 (16:50) 10.6 (00:00) 15.3 14.72 (00:30) 8.06 (00:30) 0 0 0 0 0
01-04-2018 16.9 (15:20) 3.6 (00:00) 10.2 10.83 (23:40) 4.17 (23:20) 0 0 0 0 0
31-03-2018 9.8 (18:30) 2.9 (00:00) 6.4 16.11 (07:00) 5.83 (07:10) 10.2 0.6 8.4 1.2 0
30-03-2018 12 (16:00) 4.3 (00:00) 8.2 12.78 (01:10) 4.17 (03:20) 0.6 0.4 0.2 0 0
29-03-2018 14.9 (17:40) 4.9 (00:00) 9.9 8.33 (23:40) 2.78 (21:20) 5.2 4.2 1 0 0
28-03-2018 16.3 (14:30) 7 (00:00) 11.6 10 (21:50) 4.17 (21:50) 7.4 0 0 0 7.4
27-03-2018 12.5 (17:20) 5.7 (00:00) 9.1 10.28 (08:30) 3.61 (07:20) 9.6 4 5.6 0 0
26-03-2018 7 (18:20) 5.4 (00:00) 6.2 9.44 (08:30) 3.61 (09:20) 14.4 8.2 2.2 4 0
25-03-2018 6.6 (18:20) 3.1 (00:00) 4.8 8.89 (21:50) 3.89 (21:50) 19 5 2.8 4.4 6.8
24-03-2018 7.7 (13:50) 1.6 (00:00) 4.6 9.44 (17:20) 3.89 (17:00) 15.4 2.4 0 4 9
23-03-2018 13 (16:00) 0.9 (00:00) 6.9 13.06 (20:50) 4.44 (23:00) 7.6 0 2 0 5.6

Gráficas

Temp. máximas Temp. mínimas Temp. medias Precipitaciones Rachas de viento máximas Velocidades máximas media en intervalos de 10 minutos

Datos horarios

Fecha y hora oficial Temperatura (ºC) Velocidad del viento (km/h) Dirección del viento Racha (km/h) Dirección de racha Precipitación (mm) Presión (hPa) Tendencia (hPa) Humedad (%)
2018-04-21 23:00:00 18.3 7 Sudeste 22 Sudeste 0 -- -- 55
2018-04-21 22:00:00 18.7 8 Sudeste 24 Sudeste 0 -- -- 53
2018-04-21 21:00:00 18 4 Sur 14 Sur 0 -- -- 52
2018-04-21 20:00:00 19.6 4 Sur 12 Sudeste 0 -- -- 53
2018-04-21 19:00:00 21.2 5 Sudeste 18 Sudeste 0 -- -- 46
2018-04-21 18:00:00 21.7 5 Sudeste 21 Sudeste 0 -- -- 46
2018-04-21 17:00:00 23.1 4 Sur 18 Sudeste 0 -- -- 40
2018-04-21 16:00:00 23.4 8 Sudeste 31 Sudeste 0 -- -- 38
2018-04-21 15:00:00 23.5 10 Sudeste 38 Sudeste 0 -- -- 37
2018-04-21 14:00:00 22.4 13 Sudeste 41 Sudeste 0 -- -- 35
2018-04-21 13:00:00 21.8 18 Sudeste 36 Este 0 -- -- 39
2018-04-21 12:00:00 21.1 14 Sudeste 38 Sudeste 0 -- -- 38
2018-04-21 11:00:00 19.5 8 Sudeste 26 Sur 0 -- -- 45
2018-04-21 10:00:00 16.6 6 Sudeste 20 Sudeste 0 -- -- 59
2018-04-21 09:00:00 14.9 7 Sudeste 13 Sudeste 0 -- -- 62
2018-04-21 08:00:00 14.1 6 Sudeste 28 Sur 0 -- -- 62
2018-04-21 07:00:00 13.6 7 Sudeste 19 Sudeste 0 -- -- 63
2018-04-21 06:00:00 12.7 3 Sur 17 Sur 0 -- -- 68
2018-04-21 05:00:00 13.4 4 Sudoeste 22 Sudeste 0 -- -- 67
2018-04-21 04:00:00 14.8 11 Sudeste 26 Sudeste 0 -- -- 60
2018-04-21 03:00:00 15.2 7 Sudeste 17 Sur 0 -- -- 62
2018-04-21 02:00:00 15.9 6 Sudoeste 21 Sudeste 0 -- -- 60
2018-04-21 01:00:00 14.2 5 Sudoeste 9 Sudoeste 0 -- -- 69
2018-04-21 00:00:00 14.5 4 Sudoeste 8 Sudoeste 0 -- -- 71
2018-04-20 23:00:00 15.8 3 Sur 16 Sudeste 0 -- -- 66
2018-04-20 22:00:00 15.9 4 Sudoeste 8 Sur 0 -- -- 65
2018-04-20 21:00:00 18.3 4 Sudoeste 27 Este 0 -- -- 51
2018-04-20 20:00:00 21 11 Sudeste 28 Sudeste 0 -- -- 41
2018-04-20 19:00:00 22.6 9 Sudeste 23 Sur 0 -- -- 38
2018-04-20 18:00:00 23.9 7 Sudeste 24 Este 0 -- -- 39
2018-04-20 17:00:00 24 9 Este 30 Este 0 -- -- 37
2018-04-20 16:00:00 23.4 13 Sudeste 31 Este 0 -- -- 38
2018-04-20 15:00:00 23.4 10 Sudeste 27 Sudeste 0 -- -- 39
2018-04-20 14:00:00 22.6 14 Sudeste 30 Este 0 -- -- 42
2018-04-20 13:00:00 22.4 11 Este 29 Este 0 -- -- 44
2018-04-20 12:00:00 21 6 Sudeste 18 Sudeste 0 -- -- 47
2018-04-20 11:00:00 19.3 6 Sudeste 15 Este 0 -- -- 52
2018-04-20 10:00:00 16.5 4 Este 16 Este 0 -- -- 61
2018-04-20 09:00:00 13.8 4 Sudoeste 9 Sur 0 -- -- 69
2018-04-20 08:00:00 14.5 4 Sudeste 17 Este 0 -- -- 62
2018-04-20 07:00:00 13.2 4 Sur 13 Sur 0 -- -- 69
2018-04-20 06:00:00 14.4 6 Sudeste 21 Sudeste 0 -- -- 64
2018-04-20 05:00:00 13.8 5 Sudeste 10 Sur 0 -- -- 66
2018-04-20 04:00:00 13.9 4 Sur 13 Sudeste 0 -- -- 68
2018-04-20 03:00:00 13.9 4 Sur 9 Sur 0 -- -- 71
2018-04-20 02:00:00 14.2 4 Sur 8 Sur 0 -- -- 72
2018-04-20 01:00:00 14.9 3 Sudoeste 6 Sudoeste 0 -- -- 70
2018-04-20 00:00:00 15.7 4 Sur 13 Sur 0 -- -- 67
2018-04-19 23:00:00 16.3 3 Sur 9 Sudoeste 0 -- -- 64
2018-04-19 22:00:00 17.4 4 Sudoeste 19 Sur 0 -- -- 58
2018-04-19 21:00:00 20.3 9 Sudeste 24 Sudeste 0 -- -- 46
2018-04-19 20:00:00 21.8 10 Sudeste 24 Sudeste 0 -- -- 41
2018-04-19 19:00:00 23.1 8 Sur 32 Sudeste 0 -- -- 40
2018-04-19 18:00:00 23.8 10 Sudeste 27 Sudeste 0 -- -- 41
2018-04-19 17:00:00 24.9 7 Sudeste 32 Este 0 -- -- 39
2018-04-19 16:00:00 24.7 13 Sudeste 28 Este 0 -- -- 37
2018-04-19 15:00:00 24.7 9 Sudeste 24 Sur 0 -- -- 38
2018-04-19 14:00:00 24.2 12 Sudeste 29 Sudeste 0 -- -- 35
2018-04-19 13:00:00 23.6 14 Sudeste 35 Sur 0 -- -- 36
2018-04-19 12:00:00 23.2 10 Sudeste 37 Sudeste 0 -- -- 37
2018-04-19 11:00:00 22 9 Sudeste 31 Sudeste 0 -- -- 38
2018-04-19 10:00:00 19.6 9 Sudeste 30 Este 0 -- -- 48
2018-04-19 09:00:00 17.1 9 Sudeste 27 Sudeste 0 -- -- 51
2018-04-19 08:00:00 15 9 Este 18 Este 0 -- -- 53
2018-04-19 07:00:00 13.9 5 Sur 12 Sudeste 0 -- -- 65
2018-04-19 06:00:00 14.7 4 Sur 14 Sudeste 0 -- -- 62
2018-04-19 05:00:00 16.2 5 Sur 14 Sudeste 0 -- -- 54
2018-04-19 04:00:00 16.4 5 Sur 22 Sudeste 0 -- -- 55
2018-04-19 03:00:00 18.3 8 Sudeste 23 Sur 0 -- -- 46
2018-04-19 02:00:00 18.3 6 Sudeste 23 Sur 0 -- -- 50
2018-04-19 01:00:00 18 8 Sudeste 19 Sudoeste 0 -- -- 54
2018-04-19 00:00:00 16.6 4 Sur 10 Sur 0 -- -- 58
2018-04-18 23:00:00 16.8 4 Sur 10 Sudeste 0 -- -- 60
2018-04-18 22:00:00 17.3 2 Sudeste 9 Sur 0 -- -- 60
2018-04-18 21:00:00 19.1 4 Sur 15 Sudeste 0 -- -- 56
2018-04-18 20:00:00 24 5 Sudeste 20 Sudeste 0 -- -- 43
2018-04-18 19:00:00 25.7 6 Sudeste 20 Sudeste 0 -- -- 40
2018-04-18 18:00:00 26.1 7 Sur 24 Sudeste 0 -- -- 37
2018-04-18 17:00:00 26.3 9 Sudeste 28 Sur 0 -- -- 34
2018-04-18 16:00:00 26 13 Sudeste 29 Sudeste 0 -- -- 35
2018-04-18 15:00:00 25.4 14 Sudeste 30 Sudeste 0 -- -- 31
2018-04-18 14:00:00 24.6 11 Sudeste 28 Sudeste 0 -- -- 33
2018-04-18 13:00:00 24.2 10 Sudeste 25 Sudeste 0 -- -- 36
2018-04-18 12:00:00 23 10 Sudeste 22 Este 0 -- -- 39
2018-04-18 11:00:00 20.5 9 Sudeste 17 Este 0 -- -- 49
2018-04-18 10:00:00 17.3 8 Sudeste 17 Sudeste 0 -- -- 60
2018-04-18 09:00:00 14.5 4 Sur 9 Sudeste 0 -- -- 68
2018-04-18 08:00:00 12.6 5 Sudoeste 8 Sur 0 -- -- 76
2018-04-18 07:00:00 12.4 5 Sudoeste 9 Sur 0 -- -- 77
2018-04-18 06:00:00 13.8 6 Sur 13 Sudeste 0 -- -- 72
2018-04-18 05:00:00 14 5 Sur 10 Sur 0 -- -- 70
2018-04-18 04:00:00 14.4 4 Sur 8 Sur 0 -- -- 69
2018-04-18 03:00:00 14.4 4 Sur 9 Sur 0 -- -- 72
2018-04-18 02:00:00 14.9 5 Sur 11 Sudeste 0 -- -- 67
2018-04-18 01:00:00 15.1 7 Sur 9 Sur 0 -- -- 66
2018-04-18 00:00:00 14.6 3 Sudeste 9 Sudeste 0 -- -- 70
2018-04-17 23:00:00 15 4 Sur 9 Sur 0 -- -- 69
2018-04-17 22:00:00 15.4 4 Sur 8 Sur 0 -- -- 64
2018-04-17 21:00:00 15.4 0 Calma 8 Noroeste 0 -- -- 65
2018-04-17 20:00:00 18 3 Oeste 8 Noroeste 0 -- -- 55
2018-04-17 19:00:00 20.9 6 Nordeste 17 Norte 0 -- -- 42
2018-04-17 18:00:00 22 10 Nordeste 21 Norte 0 -- -- 42
2018-04-17 17:00:00 24.8 5 Norte 14 Este 0 -- -- 36
2018-04-17 16:00:00 24.3 5 Nordeste 10 Sudeste 0 -- -- 32
2018-04-17 15:00:00 23.1 4 Nordeste 19 Sur 0 -- -- 40
2018-04-17 14:00:00 22.1 6 Este 14 Este 0 -- -- 40
2018-04-17 13:00:00 20.4 7 Sudeste 20 Sudeste 0 -- -- 41
2018-04-17 12:00:00 18.6 8 Sudeste 19 Sudeste 0 -- -- 47
2018-04-17 11:00:00 16.2 9 Sudeste 20 Sur 0 -- -- 56
2018-04-17 10:00:00 13.3 6 Sudeste 15 Este 0 -- -- 69
2018-04-17 09:00:00 11.3 6 Sur 12 Sudeste 0 -- -- 72
2018-04-17 08:00:00 9.4 5 Sur 13 Sudeste 0 -- -- 77
2018-04-17 07:00:00 9.1 5 Sur 10 Sudeste 0 -- -- 78
2018-04-17 06:00:00 9.1 4 Sur 10 Sudeste 0 -- -- 77
2018-04-17 05:00:00 8.9 5 Sur 9 Sur 0 -- -- 80
2018-04-17 04:00:00 9 4 Sur 12 Sudeste 0 -- -- 81
2018-04-17 03:00:00 8.6 3 Sur 12 Sur 0 -- -- 84
2018-04-17 02:00:00 9.7 8 Sur 18 Sur 0 -- -- 82
2018-04-17 01:00:00 8.9 6 Sudeste 13 Sudeste 0 -- -- 91
2018-04-17 00:00:00 9 5 Sur 15 Sudeste 0 -- -- 91
2018-04-16 23:00:00 9.4 7 Sudeste 12 Sudeste 0 -- -- 90
2018-04-16 22:00:00 8.7 4 Sur 9 Sur 0 -- -- 93
2018-04-16 21:00:00 9.5 4 Sur 10 Sudeste 0 -- -- 90
2018-04-16 20:00:00 11.6 4 Sudoeste 9 Sudeste 0 -- -- 83
2018-04-16 19:00:00 13.8 4 Sudeste 12 Nordeste 0 -- -- 70
2018-04-16 18:00:00 13.2 6 Este 13 Sudeste 0 -- -- 73
2018-04-16 17:00:00 12.8 4 Este 10 Este 0 -- -- 73
2018-04-16 16:00:00 13.6 4 Nordeste 17 Nordeste 0 -- -- 71
2018-04-16 15:00:00 12.7 5 Norte 13 Oeste 0 -- -- 68
2018-04-16 14:00:00 12.7 6 Este 12 Sudeste 0 -- -- 72
2018-04-16 13:00:00 11.1 4 Norte 10 Noroeste 0 -- -- 82
2018-04-16 12:00:00 9.9 4 Oeste 10 Norte 0 -- -- 95
2018-04-16 11:00:00 8.8 5 Noroeste 12 Noroeste 0 -- -- 100
2018-04-16 10:00:00 7.5 5 Noroeste 13 Oeste 0.2 -- -- 100
2018-04-16 09:00:00 7.2 5 Noroeste 12 Sudoeste 0 -- -- 100
2018-04-16 08:00:00 6.9 5 Noroeste 14 Oeste 0 -- -- 100
2018-04-16 07:00:00 6.9 4 Noroeste 10 Noroeste 1 -- -- 100
2018-04-16 06:00:00 7.1 5 Noroeste 21 Noroeste 2 -- -- 100
2018-04-16 05:00:00 7.3 5 Noroeste 11 Noroeste 2.6 -- -- 100
2018-04-16 04:00:00 7.3 4 Oeste 8 Oeste 2 -- -- 100
2018-04-16 03:00:00 7.6 0 Calma 6 Oeste 1.8 -- -- 99
2018-04-16 02:00:00 8.3 4 Oeste 6 Oeste 0.2 -- -- 91
2018-04-16 01:00:00 8.8 3 Oeste 6 Oeste 0 -- -- 82
2018-04-16 00:00:00 9 0 Calma 7 Sudeste 0 -- -- 83
2018-04-15 23:00:00 9 2 Este 4 Oeste 0 -- -- 80
2018-04-15 22:00:00 9.4 2 Sur 9 Este 0 -- -- 79
2018-04-15 21:00:00 9.7 3 Sudeste 12 Sudeste 0 -- -- 80
2018-04-15 20:00:00 9.9 5 Este 18 Este 0 -- -- 81
2018-04-15 19:00:00 10.4 5 Noroeste 19 Norte 0 -- -- 83
2018-04-15 18:00:00 10.6 9 Nordeste 21 Este 0 -- -- 84
2018-04-15 17:00:00 11.3 3 Este 17 Este 0 -- -- 85
2018-04-15 16:00:00 11.6 8 Nordeste 15 Nordeste 0 -- -- 85
2018-04-15 15:00:00 11.6 7 Nordeste 22 Nordeste 0 -- -- 85
2018-04-15 14:00:00 12.6 9 Norte 21 Norte 0 -- -- 82
2018-04-15 13:00:00 14.6 4 Noroeste 16 Noroeste 0 -- -- 71
2018-04-15 12:00:00 16 4 Nordeste 10 Este 0 -- -- 61
2018-04-15 11:00:00 14.5 3 Oeste 17 Oeste 0 -- -- 61
2018-04-15 10:00:00 14.1 2 Sudoeste 12 Noroeste 0 -- -- 62
2018-04-15 09:00:00 12.6 4 Sur 19 Sur 0 -- -- 66
2018-04-15 08:00:00 12.3 3 Sur 16 Nordeste 0 -- -- 66
2018-04-15 07:00:00 12.2 4 Sur 14 Sudoeste 0 -- -- 65
2018-04-15 06:00:00 11.5 4 Este 18 Oeste 0 -- -- 68
2018-04-15 05:00:00 11.2 7 Nordeste 15 Noroeste 0 -- -- 69
2018-04-15 04:00:00 10.6 5 Noroeste 13 Nordeste 0 -- -- 74
2018-04-15 03:00:00 10.2 4 Sudoeste 17 Sudeste 0 -- -- 77
2018-04-15 02:00:00 12.4 8 Sudeste 27 Sudeste 0 -- -- 68
2018-04-15 01:00:00 12.4 9 Sudeste 22 Sudeste 0 -- -- 68
2018-04-15 00:00:00 12.8 9 Sudeste 21 Sudeste 0 -- -- 64
2018-04-14 23:00:00 12 4 Sur 12 Sudeste 0 -- -- 66
2018-04-14 22:00:00 11.9 5 Sudoeste 10 Sur 0 -- -- 72
2018-04-14 21:00:00 12.1 4 Sur 12 Sur 0 -- -- 69
2018-04-14 20:00:00 14.8 3 Sur 10 Este 0 -- -- 66
2018-04-14 19:00:00 16.9 3 Este 11 Este 0 -- -- 61
2018-04-14 18:00:00 16.8 5 Nordeste 12 Este 0 -- -- 53
2018-04-14 17:00:00 15.6 4 Nordeste 13 Nordeste 0 -- -- 65
2018-04-14 16:00:00 15.6 5 Nordeste 15 Norte 0 -- -- 70
2018-04-14 15:00:00 14.1 4 Nordeste 10 Norte 0.2 -- -- 69
2018-04-14 14:00:00 13.8 5 Nordeste 13 Nordeste 0 -- -- 70
2018-04-14 13:00:00 12.5 2 Nordeste 9 Nordeste 0 -- -- 82
2018-04-14 12:00:00 11.5 2 Sudoeste 7 Nordeste 0 -- -- 84
2018-04-14 11:00:00 10.5 2 Nordeste 6 Sudeste 0 -- -- 96
2018-04-14 10:00:00 8.6 3 Sudeste 6 Sudeste 0 -- -- 100
2018-04-14 09:00:00 8.1 3 Oeste 5 Sudoeste 0 -- -- 100
2018-04-14 08:00:00 7.8 0 Calma 4 Sur 0 -- -- 100
2018-04-14 07:00:00 7.7 0 Calma 4 Sudeste 0 -- -- 100
2018-04-14 06:00:00 7.7 2 Oeste 3 Sudoeste 0.4 -- -- 100
2018-04-14 05:00:00 7.8 0 Calma 4 Oeste 0.2 -- -- 100
2018-04-14 04:00:00 8 0 Calma 6 Sudeste 0.2 -- -- 100
2018-04-14 03:00:00 8 0 Calma 9 Este 0 -- -- 100
2018-04-14 02:00:00 8 4 Sudeste 8 Sudeste 0 -- -- 100
2018-04-14 01:00:00 7.6 3 Sudoeste 5 Sudeste 0 -- -- 100
2018-04-14 00:00:00 8.2 5 Noroeste 10 Noroeste 0 -- -- 100
2018-04-13 23:00:00 8.4 0 Calma 12 Oeste 0 -- -- 100
2018-04-13 22:00:00 8.6 2 Noroeste 12 Oeste 0 -- -- 98
2018-04-13 21:00:00 8.7 8 Oeste 16 Noroeste 0 -- -- 95
2018-04-13 20:00:00 10.3 5 Noroeste 10 Noroeste 0 -- -- 86
2018-04-13 19:00:00 11.3 4 Norte 17 Oeste 0 -- -- 74
2018-04-13 18:00:00 12.6 6 Oeste 21 Noroeste 0 -- -- 67
2018-04-13 17:00:00 14.3 8 Sudeste 19 Sudeste 0.2 -- -- 62
2018-04-13 16:00:00 14.1 6 Sudeste 20 Este 0 -- -- 68
2018-04-13 15:00:00 13.7 8 Este 18 Este 0 -- -- 70
2018-04-13 14:00:00 12.3 7 Sudeste 14 Este 0 -- -- 78
2018-04-13 13:00:00 10.7 7 Sudeste 14 Este 0.2 -- -- 87
2018-04-13 12:00:00 10.6 8 Sudeste 14 Sudeste 0 -- -- 91
2018-04-13 11:00:00 9.4 4 Este 10 Este 0 -- -- 93
2018-04-13 10:00:00 8.7 3 Sudeste 9 Sudeste 0.2 -- -- 96
2018-04-13 09:00:00 7.4 2 Sudoeste 5 Sudoeste 0.4 -- -- 100
2018-04-13 08:00:00 7.3 4 Sudoeste 8 Sur 0.4 -- -- 97
2018-04-13 07:00:00 8.1 3 Sur 12 Sudeste 0 -- -- 87
2018-04-13 06:00:00 8.3 6 Sudeste 12 Sudeste 0 -- -- 87
2018-04-13 05:00:00 8.1 4 Sur 9 Sur 0 -- -- 89
2018-04-13 04:00:00 7.1 4 Sur 8 Sur 0 -- -- 94
2018-04-13 03:00:00 7.4 4 Sur 9 Sur 0 -- -- 96
2018-04-13 02:00:00 8.1 4 Sur 9 Sudoeste 0 -- -- 97
2018-04-13 01:00:00 8.6 4 Sur 8 Sur 0 -- -- 97
2018-04-13 00:00:00 8.5 3 Sur 6 Sudoeste 0 -- -- 99
2018-04-12 23:00:00 8.5 4 Sudoeste 6 Sudoeste 0 -- -- 98
2018-04-12 22:00:00 9.2 4 Sudoeste 6 Sudoeste 0 -- -- 97
2018-04-12 21:00:00 9.9 3 Sudoeste 5 Sur 0 -- -- 94
2018-04-12 20:00:00 11.2 3 Sudoeste 9 Este 0 -- -- 88
2018-04-12 19:00:00 13.6 4 Este 12 Este 0 -- -- 74
2018-04-12 18:00:00 13.4 4 Este 10 Este 0 -- -- 71
2018-04-12 17:00:00 13.1 4 Este 9 Sudeste 0 -- -- 74
2018-04-12 16:00:00 12.2 2 Sur 14 Sur 0 -- -- 80
2018-04-12 15:00:00 12.6 6 Este 13 Sur 0 -- -- 75
2018-04-12 14:00:00 10.7 6 Noroeste 15 Oeste 0 -- -- 76
2018-04-12 13:00:00 8.7 4 Noroeste 10 Oeste 0 -- -- 100
2018-04-12 12:00:00 7.7 5 Noroeste 14 Noroeste 0 -- -- 100
2018-04-12 11:00:00 7 7 Noroeste 18 Noroeste 0.2 -- -- 100
2018-04-12 10:00:00 6.7 9 Noroeste 24 Noroeste 0.6 -- -- 100
2018-04-12 09:00:00 6.8 8 Noroeste 27 Oeste 1.8 -- -- 100
2018-04-12 08:00:00 6.8 8 Noroeste 33 Oeste 4.6 -- -- 100
2018-04-12 07:00:00 7.2 11 Noroeste 26 Noroeste 2.2 -- -- 100
2018-04-12 06:00:00 7.3 11 Noroeste 26 Noroeste 2.2 -- -- 100
2018-04-12 05:00:00 7.5 7 Noroeste 22 Noroeste 1.8 -- -- 100
2018-04-12 04:00:00 7.5 6 Noroeste 27 Noroeste 0.8 -- -- 100
2018-04-12 03:00:00 7.6 9 Noroeste 27 Sudoeste 1.6 -- -- 100
2018-04-12 02:00:00 7.5 8 Noroeste 29 Noroeste 6.4 -- -- 100
2018-04-12 01:00:00 7.6 9 Norte 22 Norte 4.6 -- -- 100
2018-04-12 00:00:00 7.5 11 Noroeste 27 Oeste 2.2 -- -- 100
2018-04-11 23:00:00 7.5 10 Noroeste 31 Oeste 2.6 -- -- 100
2018-04-11 22:00:00 7.5 11 Noroeste 27 Oeste 2.4 -- -- 100
2018-04-11 21:00:00 7.6 9 Norte 32 Nordeste 3 -- -- 100
2018-04-11 20:00:00 7.8 10 Norte 36 Oeste 0.8 -- -- 100
2018-04-11 19:00:00 7.9 15 Noroeste 38 Oeste 0 -- -- 100
2018-04-11 18:00:00 8 12 Norte 33 Norte 0 -- -- 100
2018-04-11 17:00:00 7.8 14 Noroeste 32 Noroeste 2 -- -- 100
2018-04-11 16:00:00 7.5 13 Noroeste 39 Noroeste 1.8 -- -- 100
2018-04-11 15:00:00 7.2 12 Noroeste 29 Noroeste 2.4 -- -- 100
2018-04-11 14:00:00 7.1 9 Norte 36 Noroeste 1.2 -- -- 100
2018-04-11 13:00:00 7 12 Noroeste 32 Oeste 1.8 -- -- 100
2018-04-11 12:00:00 6.6 15 Noroeste 37 Noroeste 2.4 -- -- 100
2018-04-11 11:00:00 6.3 10 Noroeste 35 Noroeste 2.6 -- -- 100
2018-04-11 10:00:00 5.8 9 Noroeste 38 Noroeste 3.8 -- -- 100
2018-04-11 09:00:00 5.5 10 Noroeste 28 Oeste 3.6 -- -- 100
2018-04-11 08:00:00 5.1 11 Noroeste 26 Oeste 2 -- -- 100
2018-04-11 07:00:00 4.8 11 Noroeste 30 Noroeste 1.8 -- -- 100
2018-04-11 06:00:00 4.5 8 Noroeste 28 Noroeste 1.2 -- -- 100
2018-04-11 05:00:00 4.4 12 Noroeste 23 Oeste 1 -- -- 100
2018-04-11 04:00:00 4.3 9 Noroeste 24 Oeste 1 -- -- 100
2018-04-11 03:00:00 3.9 7 Noroeste 17 Noroeste 1.8 -- -- 100
2018-04-11 02:00:00 3.8 5 Noroeste 17 Oeste 1.2 -- -- 100
2018-04-11 01:00:00 3.3 3 Norte 9 Noroeste 1.2 -- -- 100
2018-04-11 00:00:00 3.1 0 Calma 9 Sudeste 1.8 -- -- 100
2018-04-10 23:00:00 3.3 2 Sudeste 7 Sudeste 1.4 -- -- 100
2018-04-10 22:00:00 3.4 3 Sudeste 6 Sudeste 1.8 -- -- 100
2018-04-10 21:00:00 3.6 4 Sudeste 10 Oeste 3.2 -- -- 100
2018-04-10 20:00:00 4.1 3 Sur 12 Nordeste 3.6 -- -- 100
2018-04-10 19:00:00 4.6 7 Norte 20 Noroeste 4.4 -- -- 100
2018-04-10 18:00:00 5.9 6 Norte 12 Norte 3.4 -- -- 100
2018-04-10 17:00:00 6.4 5 Noroeste 13 Noroeste 4.8 -- -- 100
2018-04-10 16:00:00 7.4 4 Noroeste 10 Oeste 3 -- -- 98
2018-04-10 15:00:00 7.8 4 Sudeste 14 Sudeste 2.6 -- -- 94
2018-04-10 14:00:00 7.9 6 Sudeste 14 Este 1 -- -- 95
2018-04-10 13:00:00 7.5 6 Sudeste 21 Sudeste 0.8 -- -- 94
2018-04-10 12:00:00 6.6 8 Sudeste 24 Sudeste 1.6 -- -- 97
2018-04-10 11:00:00 6 10 Sudeste 24 Sudeste 1.4 -- -- 95
2018-04-10 10:00:00 6.1 7 Sudeste 22 Este 0.8 -- -- 93
2018-04-10 09:00:00 6.3 9 Sudeste 24 Este 0 -- -- 89
2018-04-10 08:00:00 6 8 Sudeste 25 Sudeste 0 -- -- 88
2018-04-10 07:00:00 5.8 12 Sudeste 27 Este 0 -- -- 88
2018-04-10 06:00:00 5.7 7 Sudoeste 23 Este 0 -- -- 96
2018-04-10 05:00:00 4.4 6 Sur 17 Sudoeste 0 -- -- 100
2018-04-10 04:00:00 4.2 5 Sudeste 17 Sudeste 0 -- -- 100
2018-04-10 03:00:00 4.2 4 Sur 11 Sudeste 0 -- -- 100
2018-04-10 02:00:00 4.3 6 Sudeste 13 Sudeste 0 -- -- 100
2018-04-10 01:00:00 4.4 4 Sudeste 9 Sudeste 0 -- -- 100
2018-04-10 00:00:00 4.5 5 Sudeste 9 Sudeste 1.8 -- -- 100
2018-04-09 23:00:00 4.6 0 Calma 14 Sudeste 1.2 -- -- 100
2018-04-09 22:00:00 4.5 7 Sudeste 12 Sudeste 0 -- -- 100
2018-04-09 21:00:00 4.5 0 Calma 15 Sudeste 0 -- -- 100
2018-04-09 20:00:00 5 8 Sudeste 15 Este 0 -- -- 100
2018-04-09 19:00:00 4.9 2 Norte 9 Sudeste 0.8 -- -- 100
2018-04-09 18:00:00 4.6 4 Sudeste 9 Sudeste 7.6 -- -- 100
2018-04-09 17:00:00 4.2 3 Este 20 Oeste 4 -- -- 100
2018-04-09 16:00:00 5.2 5 Sudoeste 24 Oeste 3.4 -- -- 95
2018-04-09 15:00:00 7 8 Oeste 23 Oeste 1.4 -- -- 92
2018-04-09 14:00:00 8.1 5 Noroeste 14 Oeste 2.2 -- -- 100
2018-04-09 13:00:00 8.4 6 Oeste 17 Oeste 0.8 -- -- 95
2018-04-09 12:00:00 9.2 7 Oeste 14 Noroeste 0 -- -- 88
2018-04-09 11:00:00 8.8 5 Noroeste 12 Noroeste 0 -- -- 94
2018-04-09 10:00:00 7.2 3 Sudeste 9 Sur 0 -- -- 100
2018-04-09 09:00:00 7.1 0 Calma 3 Norte 0 -- -- 100
2018-04-09 08:00:00 6.6 0 Calma 6 Oeste 0 -- -- 100
2018-04-09 07:00:00 6.1 3 Oeste 6 Noroeste 0 -- -- 98
2018-04-09 06:00:00 5.9 0 Calma 6 Sudeste 0 -- -- 95
2018-04-09 05:00:00 6.4 3 Sur 7 Sudeste 0 -- -- 96
2018-04-09 04:00:00 6.5 5 Sur 9 Sudeste 0 -- -- 100
2018-04-09 03:00:00 6.8 2 Sur 5 Sur 0 -- -- 93
2018-04-09 02:00:00 7.2 4 Sur 6 Sudeste 0 -- -- 98
2018-04-09 01:00:00 6.6 2 Sur 5 Sudoeste 0 -- -- 98
2018-04-09 00:00:00 6.6 0 Calma 4 Sur 0 -- -- 96
2018-04-08 23:00:00 7.1 3 Sur 5 Sudoeste 0 -- -- 93
2018-04-08 22:00:00 7.5 3 Sudoeste 6 Sudoeste 0 -- -- 95
2018-04-08 21:00:00 8.8 3 Sur 12 Este 0 -- -- 91
2018-04-08 20:00:00 11.5 5 Sudeste 13 Este 0 -- -- 77
2018-04-08 19:00:00 13 6 Nordeste 17 Este 0 -- -- 72
2018-04-08 18:00:00 13.9 8 Sudeste 15 Sudeste 0 -- -- 71
2018-04-08 17:00:00 13.5 5 Norte 15 Nordeste 0 -- -- 69
2018-04-08 16:00:00 13.2 6 Norte 15 Norte 0 -- -- 71
2018-04-08 15:00:00 12.5 7 Noroeste 18 Oeste 0 -- -- 74
2018-04-08 14:00:00 11.6 6 Norte 17 Noroeste 0 -- -- 84
2018-04-08 13:00:00 10 6 Noroeste 17 Noroeste 0 -- -- 99
2018-04-08 12:00:00 7.8 5 Noroeste 18 Noroeste 1.4 -- -- 100
2018-04-08 11:00:00 7.7 7 Noroeste 21 Noroeste 2.2 -- -- 100
2018-04-08 10:00:00 7.6 10 Noroeste 23 Noroeste 4 -- -- 100
2018-04-08 09:00:00 7.6 7 Noroeste 22 Noroeste 0 -- -- 100
2018-04-08 08:00:00 7.4 7 Noroeste 22 Noroeste 0 -- -- 100
2018-04-08 07:00:00 7.4 10 Noroeste 19 Noroeste 0 -- -- 100
2018-04-08 06:00:00 7.2 5 Noroeste 13 Noroeste 0 -- -- 100
2018-04-08 05:00:00 6.8 0 Calma 5 Sudeste 0 -- -- 100
2018-04-08 04:00:00 7.1 2 Sudeste 7 Sudeste 0 -- -- 100
2018-04-08 03:00:00 7.2 0 Calma 6 Sur 0 -- -- 100
2018-04-08 02:00:00 7.3 2 Sur 6 Sudeste 0.2 -- -- 100
2018-04-08 01:00:00 7.4 3 Sudeste 9 Sudeste 0 -- -- 100
2018-04-08 00:00:00 7.4 4 Sudeste 8 Sudeste 0.4 -- -- 100
2018-04-07 23:00:00 7.6 5 Sudeste 12 Sudeste 0.6 -- -- 100
2018-04-07 22:00:00 7.7 5 Sudeste 13 Sudeste 0.2 -- -- 100
2018-04-07 21:00:00 7.7 4 Sudeste 8 Sudeste 0.8 -- -- 100
2018-04-07 20:00:00 7.7 2 Oeste 8 Noroeste 1.8 -- -- 100
2018-04-07 19:00:00 8.2 5 Noroeste 11 Norte 3.8 -- -- 100
2018-04-07 18:00:00 9.4 3 Noroeste 12 Noroeste 3 -- -- 99
2018-04-07 17:00:00 10.5 3 Norte 8 Norte 0 -- -- 96
2018-04-07 16:00:00 10.6 3 Noroeste 5 Noroeste 0.6 -- -- 95
2018-04-07 15:00:00 10.1 2 Oeste 7 Sudoeste 1 -- -- 94
2018-04-07 14:00:00 10.8 2 Oeste 18 Este 0 -- -- 81
2018-04-07 13:00:00 11.5 8 Este 41 Este 0 -- -- 65
2018-04-07 12:00:00 11.1 21 Sudeste 39 Sudeste 0.2 -- -- 64
2018-04-07 11:00:00 12.3 9 Sur 31 Sudeste 0 -- -- 56
2018-04-07 10:00:00 12.1 15 Sudeste 30 Sudeste 0 -- -- 58
2018-04-07 09:00:00 10.9 6 Sur 21 Sur 0.2 -- -- 75
2018-04-07 08:00:00 11.5 8 Sur 20 Sudeste 0 -- -- 68
2018-04-07 07:00:00 11.5 6 Sur 18 Sur 0 -- -- 76
2018-04-07 06:00:00 12 5 Sur 15 Sudoeste 0 -- -- 71
2018-04-07 05:00:00 12 4 Sudoeste 27 Sur 0 -- -- 74
2018-04-07 04:00:00 11.9 10 Sudeste 35 Sudeste 0 -- -- 75
2018-04-07 03:00:00 12.2 13 Sudeste 37 Sudoeste 0 -- -- 74
2018-04-07 02:00:00 12.7 13 Sur 40 Sudeste 0 -- -- 69
2018-04-07 01:00:00 13.3 12 Sur 38 Sur 0 -- -- 63
2018-04-07 00:00:00 13.7 11 Sur 33 Sur 0 -- -- 63
2018-04-06 23:00:00 14.3 15 Sudeste 38 Sudeste 0 -- -- 63
2018-04-06 22:00:00 16 15 Sudeste 42 Sudeste 0 -- -- 57
2018-04-06 21:00:00 15.4 9 Sudeste 30 Sudeste 0 -- -- 63
2018-04-06 20:00:00 17.2 13 Sur 44 Sudeste 0 -- -- 55
2018-04-06 19:00:00 18.9 16 Sudeste 38 Este 0 -- -- 49
2018-04-06 18:00:00 21.2 18 Sudeste 43 Sudeste 0 -- -- 40
2018-04-06 17:00:00 21.8 13 Sudeste 33 Sudeste 0 -- -- 39
2018-04-06 16:00:00 21.7 12 Sudeste 34 Sudeste 0 -- -- 38
2018-04-06 15:00:00 21.8 11 Sudeste 33 Sudeste 0 -- -- 38
2018-04-06 14:00:00 20.6 12 Sudeste 37 Sudeste 0 -- -- 38
2018-04-06 13:00:00 19.1 14 Sudeste 33 Sudeste 0 -- -- 40
2018-04-06 12:00:00 18.2 11 Sudeste 34 Sudeste 0 -- -- 43
2018-04-06 11:00:00 16.5 19 Sudeste 38 Este 0 -- -- 45
2018-04-06 10:00:00 15.1 17 Sudeste 43 Sudeste 0 -- -- 49
2018-04-06 09:00:00 13.6 17 Sudeste 32 Este 0 -- -- 54
2018-04-06 08:00:00 12.3 7 Este 24 Este 0 -- -- 59
2018-04-06 07:00:00 13.6 9 Sudeste 34 Sudeste 0 -- -- 53
2018-04-06 06:00:00 13.8 12 Sudeste 24 Sur 0 -- -- 53
2018-04-06 05:00:00 13.2 4 Sudeste 27 Sudeste 0 -- -- 58
2018-04-06 04:00:00 13.6 10 Sudeste 28 Sudeste 0 -- -- 55
2018-04-06 03:00:00 13.7 6 Sur 21 Sudeste 0 -- -- 58
2018-04-06 02:00:00 14.4 7 Sur 26 Sur 0 -- -- 53
2018-04-06 01:00:00 15.6 9 Sur 29 Sudeste 0 -- -- 48
2018-04-06 00:00:00 14.3 12 Sudeste 35 Sudeste 0 -- -- 52
2018-04-05 23:00:00 14.2 6 Sudeste 18 Sudeste 0 -- -- 56
2018-04-05 22:00:00 13.5 6 Sur 15 Sudeste 0 -- -- 64
2018-04-05 21:00:00 14.7 5 Sur 17 Sur 0 -- -- 63
2018-04-05 20:00:00 16.5 5 Sudeste 21 Sudeste 0 -- -- 55
2018-04-05 19:00:00 18 7 Sudeste 23 Sudeste 0 -- -- 52
2018-04-05 18:00:00 19 7 Sudeste 23 Sudeste 0 -- -- 48
2018-04-05 17:00:00 18.6 3 Este 23 Sudeste 0 -- -- 50
2018-04-05 16:00:00 17.1 9 Sudeste 21 Sudeste 0 -- -- 50
2018-04-05 15:00:00 16.3 6 Sudeste 25 Sudeste 0 -- -- 50
2018-04-05 14:00:00 15.9 6 Sudeste 22 Este 0 -- -- 55
2018-04-05 13:00:00 14 8 Sudeste 23 Sudeste 0 -- -- 62
2018-04-05 12:00:00 12.2 6 Sudeste 22 Sudeste 0 -- -- 71
2018-04-05 11:00:00 11 9 Sudeste 19 Sur 0 -- -- 82
2018-04-05 10:00:00 8.5 7 Sudeste 13 Este 0 -- -- 100
2018-04-05 09:00:00 6.9 4 Sudeste 8 Sudeste 0 -- -- 100
2018-04-05 08:00:00 6 3 Sur 5 Sur 0 -- -- 100
2018-04-05 07:00:00 6.8 2 Sur 6 Sudeste 0 -- -- 100
2018-04-05 06:00:00 6.9 3 Sur 5 Sudeste 0 -- -- 100
2018-04-05 05:00:00 6.7 3 Sur 9 Sudeste 0 -- -- 100
2018-04-05 04:00:00 6.9 4 Oeste 14 Noroeste 0 -- -- 100
2018-04-05 03:00:00 6.9 5 Noroeste 17 Oeste 0.2 -- -- 100
2018-04-05 02:00:00 7.1 7 Noroeste 23 Noroeste 0.6 -- -- 100
2018-04-05 01:00:00 7.5 5 Noroeste 18 Oeste 0 -- -- 99
2018-04-05 00:00:00 7.7 5 Noroeste 19 Noroeste 0 -- -- 97
2018-04-04 23:00:00 7.8 10 Noroeste 27 Noroeste 0 -- -- 97
2018-04-04 22:00:00 8.6 7 Noroeste 29 Oeste 1.6 -- -- 100
2018-04-04 21:00:00 8.9 5 Noroeste 21 Noroeste 5 -- -- 100
2018-04-04 20:00:00 9.3 7 Noroeste 24 Oeste 3.2 -- -- 97
2018-04-04 19:00:00 11.3 5 Norte 11 Noroeste 0.4 -- -- 87
2018-04-04 18:00:00 12.2 2 Sudoeste 14 Nordeste 0.2 -- -- 78
2018-04-04 17:00:00 12.7 5 Noroeste 17 Oeste 0.4 -- -- 80
2018-04-04 16:00:00 12.6 9 Norte 31 Norte 0 -- -- 71
2018-04-04 15:00:00 16.7 9 Norte 31 Norte 0 -- -- 49
2018-04-04 14:00:00 15.1 9 Norte 36 Sudeste 0 -- -- 52
2018-04-04 13:00:00 12.9 7 Nordeste 31 Oeste 0 -- -- 57
2018-04-04 12:00:00 12.7 8 Nordeste 35 Sur 0 -- -- 59
2018-04-04 11:00:00 12.6 9 Este 26 Norte 0 -- -- 57
2018-04-04 10:00:00 11.4 12 Nordeste 32 Sudeste 0 -- -- 61
2018-04-04 09:00:00 10.5 12 Nordeste 33 Nordeste 0 -- -- 65
2018-04-04 08:00:00 10.1 13 Nordeste 26 Nordeste 0 -- -- 66
2018-04-04 07:00:00 9.7 12 Sudeste 22 Este 0 -- -- 67
2018-04-04 06:00:00 9.9 10 Nordeste 34 Noroeste 0 -- -- 65
2018-04-04 05:00:00 10.2 10 Norte 41 Noroeste 0 -- -- 63
2018-04-04 04:00:00 10.2 11 Nordeste 35 Norte 0 -- -- 65
2018-04-04 03:00:00 10.4 14 Nordeste 28 Este 0 -- -- 64
2018-04-04 02:00:00 10.6 12 Norte 32 Nordeste 0 -- -- 64
2018-04-04 01:00:00 10.7 16 Nordeste 30 Nordeste 0 -- -- 67
2018-04-04 00:00:00 11.1 12 Nordeste 44 Sudeste 0 -- -- 65
2018-04-03 23:00:00 11 8 Nordeste 31 Este 0 -- -- 67
2018-04-03 22:00:00 11.7 6 Nordeste 24 Noroeste 0 -- -- 64
2018-04-03 21:00:00 13.3 9 Nordeste 35 Sudeste 0 -- -- 59
2018-04-03 20:00:00 14.5 14 Este 50 Norte 0 -- -- 50
2018-04-03 19:00:00 16.7 13 Nordeste 26 Noroeste 0 -- -- 43
2018-04-03 18:00:00 17.4 7 Sudeste 39 Sudeste 0 -- -- 49
2018-04-03 17:00:00 17.1 8 Este 27 Nordeste 0.2 -- -- 49
2018-04-03 16:00:00 15.2 5 Nordeste 23 Sur 0 -- -- 57
2018-04-03 15:00:00 15.7 5 Noroeste 33 Sudeste 0 -- -- 54
2018-04-03 14:00:00 15.3 11 Sudeste 32 Nordeste 0 -- -- 51
2018-04-03 13:00:00 15.9 17 Este 33 Nordeste 0 -- -- 50
2018-04-03 12:00:00 14.6 10 Oeste 28 Noroeste 0 -- -- 56
2018-04-03 11:00:00 14.5 5 Sudeste 54 Oeste 0 -- -- 56
2018-04-03 10:00:00 12.8 9 Este 26 Sur 0 -- -- 62
2018-04-03 09:00:00 12.4 9 Este 31 Este 0 -- -- 64
2018-04-03 08:00:00 11.9 9 Sudeste 33 Sur 0 -- -- 66
2018-04-03 07:00:00 12.2 11 Sudeste 36 Sur 0 -- -- 66
2018-04-03 06:00:00 12.7 10 Sudeste 42 Sudeste 0 -- -- 66
2018-04-03 05:00:00 12.3 8 Este 27 Sur 0 -- -- 71
2018-04-03 04:00:00 11.4 13 Sudeste 47 Sudeste 0 -- -- 71
2018-04-03 03:00:00 10.7 12 Sudeste 37 Sudeste 0 -- -- 80
2018-04-03 02:00:00 12.8 17 Sudeste 36 Sudeste 0 -- -- 73
2018-04-03 01:00:00 13.4 8 Este 32 Sur 0 -- -- 71
2018-04-03 00:00:00 14 11 Norte 50 Sudeste 0 -- -- 65
2018-04-02 23:00:00 14.1 13 Sudeste 43 Sudeste 0 -- -- 63
2018-04-02 22:00:00 14.6 11 Sudeste 34 Sudeste 0 -- -- 55
2018-04-02 21:00:00 15.5 17 Sudeste 39 Sudeste 0 -- -- 46
2018-04-02 20:00:00 16.1 13 Sudeste 33 Este 0 -- -- 44
2018-04-02 19:00:00 17.3 9 Sudeste 33 Sudeste 0 -- -- 42
2018-04-02 18:00:00 18.6 11 Sudeste 26 Sur 0 -- -- 38
2018-04-02 17:00:00 19.6 10 Sudeste 30 Sudeste 0 -- -- 39
2018-04-02 16:00:00 18.5 13 Sudeste 33 Sudeste 0 -- -- 41
2018-04-02 15:00:00 18.3 12 Sudeste 41 Sudeste 0 -- -- 39
2018-04-02 14:00:00 17.5 17 Sudeste 37 Sudeste 0 -- -- 39
2018-04-02 13:00:00 16.8 17 Sudeste 44 Sudeste 0 -- -- 40
2018-04-02 12:00:00 15.9 15 Sudeste 40 Sudeste 0 -- -- 42
2018-04-02 11:00:00 14 13 Sudeste 26 Este 0 -- -- 49
2018-04-02 10:00:00 11.5 9 Sudeste 33 Este 0 -- -- 57
2018-04-02 09:00:00 10.8 11 Sudeste 19 Sudeste 0 -- -- 57
2018-04-02 08:00:00 10.6 8 Sudeste 22 Sur 0 -- -- 58
2018-04-02 07:00:00 11.4 6 Sudeste 20 Este 0 -- -- 56
2018-04-02 06:00:00 11.9 10 Sudeste 25 Sudeste 0 -- -- 54
2018-04-02 05:00:00 12.8 14 Sudeste 39 Sudeste 0 -- -- 52
2018-04-02 04:00:00 13.5 16 Sudeste 41 Sudeste 0 -- -- 50
2018-04-02 03:00:00 13.9 21 Sudeste 51 Sudeste 0 -- -- 49
2018-04-02 02:00:00 14 23 Sudeste 49 Este 0 -- -- 49
2018-04-02 01:00:00 14.3 22 Sudeste 53 Sudeste 0 -- -- 49
2018-04-02 00:00:00 13.9 11 Sudeste 39 Sudeste 0 -- -- 53
2018-04-01 23:00:00 13.5 14 Sudeste 33 Sudeste 0 -- -- 55
2018-04-01 22:00:00 12.1 4 Sur 12 Sur 0 -- -- 66
2018-04-01 21:00:00 12.2 4 Sudoeste 8 Sur 0 -- -- 67
2018-04-01 20:00:00 14.4 5 Sudeste 13 Sudeste 0 -- -- 58
2018-04-01 19:00:00 15.3 5 Sur 17 Sudoeste 0 -- -- 51
2018-04-01 18:00:00 16.3 6 Sudoeste 17 Sudoeste 0 -- -- 48
2018-04-01 17:00:00 16.1 5 Este 17 Sudoeste 0 -- -- 51
2018-04-01 16:00:00 16.3 4 Este 17 Este 0 -- -- 49
2018-04-01 15:00:00 16.1 5 Norte 18 Sur 0 -- -- 48
2018-04-01 14:00:00 14.5 9 Sudeste 22 Sur 0 -- -- 51
2018-04-01 13:00:00 13.2 7 Sudeste 19 Sudeste 0 -- -- 55
2018-04-01 12:00:00 12.7 4 Este 15 Sur 0 -- -- 58
2018-04-01 11:00:00 9.1 6 Sudeste 13 Este 0 -- -- 72
2018-04-01 10:00:00 6.9 5 Sudeste 15 Noroeste 0 -- -- 80
2018-04-01 09:00:00 5.3 7 Sudeste 14 Sudeste 0 -- -- 85
2018-04-01 08:00:00 4.1 7 Sudeste 12 Sudeste 0 -- -- 90
2018-04-01 07:00:00 4.2 5 Sur 13 Sudeste 0 -- -- 90
2018-04-01 06:00:00 3.7 6 Sudeste 13 Sudeste 0 -- -- 95
2018-04-01 05:00:00 4 5 Sur 13 Sudeste 0 -- -- 95
2018-04-01 04:00:00 3.8 6 Sur 10 Sudeste 0 -- -- 98
2018-04-01 03:00:00 4.5 7 Sudeste 10 Sudeste 0 -- -- 95
2018-04-01 02:00:00 3.8 2 Sur 6 Sur 0 -- -- 96
2018-04-01 01:00:00 4.3 4 Sudoeste 12 Noroeste 0 -- -- 94
2018-04-01 00:00:00 5.6 6 Noroeste 14 Oeste 0 -- -- 89
2018-03-31 23:00:00 6.3 6 Noroeste 16 Norte 0 -- -- 86
2018-03-31 22:00:00 6.2 4 Noroeste 12 Norte 0 -- -- 88
2018-03-31 21:00:00 6.8 6 Noroeste 19 Oeste 0 -- -- 80
2018-03-31 20:00:00 8.1 5 Norte 31 Oeste 0 -- -- 74
2018-03-31 19:00:00 9.6 9 Noroeste 28 Noroeste 0 -- -- 72
2018-03-31 18:00:00 9.4 11 Norte 36 Oeste 0 -- -- 69
2018-03-31 17:00:00 8.7 14 Noroeste 31 Norte 0.6 -- -- 72
2018-03-31 16:00:00 8.6 13 Noroeste 38 Noroeste 0.6 -- -- 72
2018-03-31 15:00:00 8.1 13 Noroeste 31 Oeste 0 -- -- 72
2018-03-31 14:00:00 7 7 Norte 25 Noroeste 0 -- -- 79
2018-03-31 13:00:00 6.9 10 Norte 41 Norte 0 -- -- 86
2018-03-31 12:00:00 5 9 Noroeste 25 Noroeste 0.2 -- -- 99
2018-03-31 11:00:00 3.8 8 Norte 53 Noroeste 1.6 -- -- 98
2018-03-31 10:00:00 5 10 Norte 34 Oeste 0 -- -- 84
2018-03-31 09:00:00 4.7 11 Norte 47 Noroeste 0.2 -- -- 95
2018-03-31 08:00:00 4.4 15 Noroeste 54 Noroeste 0.2 -- -- 100
2018-03-31 07:00:00 3.8 18 Noroeste 58 Norte 6.2 -- -- 100
2018-03-31 06:00:00 3.8 13 Norte 37 Noroeste 0.6 -- -- 92
2018-03-31 05:00:00 4.8 8 Oeste 24 Oeste 0 -- -- 78
2018-03-31 04:00:00 4.4 4 Norte 21 Noroeste 0 -- -- 80
2018-03-31 03:00:00 5.9 8 Noroeste 22 Sudoeste 0 -- -- 62
2018-03-31 02:00:00 6.3 7 Oeste 18 Sudoeste 0 -- -- 63
2018-03-31 01:00:00 6.5 9 Oeste 24 Oeste 0 -- -- 66
2018-03-31 00:00:00 6.8 7 Sudeste 34 Norte 0 -- -- 67
2018-03-30 23:00:00 7.2 7 Nordeste 30 Nordeste 0 -- -- 65
2018-03-30 22:00:00 7.7 9 Nordeste 26 Este 0 -- -- 61
2018-03-30 21:00:00 9 9 Nordeste 31 Nordeste 0 -- -- 52
2018-03-30 20:00:00 9.9 10 Nordeste 37 Este 0 -- -- 43
2018-03-30 19:00:00 10.1 6 Este 25 Nordeste 0 -- -- 41
2018-03-30 18:00:00 10.2 8 Nordeste 29 Nordeste 0 -- -- 42
2018-03-30 17:00:00 10.8 9 Nordeste 21 Sudeste 0 -- -- 45
2018-03-30 16:00:00 12 9 Nordeste 30 Noroeste 0 -- -- 40
2018-03-30 15:00:00 10.7 8 Sudeste 38 Noroeste 0 -- -- 46
2018-03-30 14:00:00 11.2 10 Sur 25 Sudeste 0 -- -- 45
2018-03-30 13:00:00 10 6 Este 23 Este 0 -- -- 51
2018-03-30 12:00:00 9.5 7 Sudeste 25 Este 0 -- -- 59
2018-03-30 11:00:00 8 6 Norte 15 Oeste 0 -- -- 64
2018-03-30 10:00:00 5.4 4 Sudeste 10 Sudeste 0 -- -- 81
2018-03-30 09:00:00 4.5 3 Oeste 10 Noroeste 0 -- -- 83
2018-03-30 08:00:00 4.5 5 Noroeste 27 Oeste 0 -- -- 79
2018-03-30 07:00:00 6.1 6 Norte 22 Noroeste 0.2 -- -- 72
2018-03-30 06:00:00 5.8 5 Norte 21 Este 0 -- -- 78
2018-03-30 05:00:00 6 10 Norte 24 Nordeste 0.2 -- -- 80
2018-03-30 04:00:00 6.3 7 Norte 39 Noroeste 0.2 -- -- 86
2018-03-30 03:00:00 9.7 10 Norte 36 Sudoeste 0 -- -- 58
2018-03-30 02:00:00 10.3 8 Sudeste 46 Sudeste 0 -- -- 53
2018-03-30 01:00:00 10.4 11 Este 25 Sudeste 0 -- -- 49
2018-03-30 00:00:00 11.2 8 Sudeste 30 Sudoeste 0 -- -- 45
2018-03-29 23:00:00 11.6 6 Sudeste 30 Sudeste 0 -- -- 45
2018-03-29 22:00:00 11.4 9 Nordeste 20 Nordeste 0 -- -- 48
2018-03-29 21:00:00 10.9 7 Este 19 Sur 0 -- -- 50
2018-03-29 20:00:00 11.9 7 Sudeste 24 Sudeste 0 -- -- 48
2018-03-29 19:00:00 12.8 6 Este 24 Noroeste 0 -- -- 44
2018-03-29 18:00:00 14.5 8 Norte 23 Sudeste 0 -- -- 43
2018-03-29 17:00:00 13.7 3 Este 20 Este 0 -- -- 45
2018-03-29 16:00:00 14.1 6 Oeste 20 Sudeste 0 -- -- 40
2018-03-29 15:00:00 12.9 5 Oeste 27 Sudeste 0 -- -- 46
2018-03-29 14:00:00 12.1 6 Norte 18 Norte 0 -- -- 60
2018-03-29 13:00:00 10.4 6 Este 13 Sudeste 0 -- -- 82
2018-03-29 12:00:00 7.8 5 Sudeste 11 Sudeste 0 -- -- 94
2018-03-29 11:00:00 7.4 4 Sudeste 8 Sudeste 0 -- -- 100
2018-03-29 10:00:00 5.8 2 Sudeste 6 Sudeste 0.4 -- -- 100
2018-03-29 09:00:00 5.3 0 Calma 6 Este 0.2 -- -- 100
2018-03-29 08:00:00 5 2 Sudoeste 3 Oeste 0.2 -- -- 100
2018-03-29 07:00:00 5.1 0 Calma 6 Oeste 0.2 -- -- 100
2018-03-29 06:00:00 5.3 3 Noroeste 15 Noroeste 0.4 -- -- 100
2018-03-29 05:00:00 5.6 6 Noroeste 12 Noroeste 1 -- -- 100
2018-03-29 04:00:00 5.8 3 Oeste 6 Oeste 0.2 -- -- 100
2018-03-29 03:00:00 6.1 2 Norte 9 Nordeste 0.6 -- -- 100
2018-03-29 02:00:00 6.3 3 Norte 17 Oeste 0.4 -- -- 100
2018-03-29 01:00:00 6.8 5 Norte 12 Oeste 1.6 -- -- 100
2018-03-29 00:00:00 7 5 Noroeste 18 Noroeste 1 -- -- 100
2018-03-28 23:00:00 7.3 6 Noroeste 30 Oeste 0.6 -- -- 100
2018-03-28 22:00:00 8.1 10 Norte 36 Noroeste 0.8 -- -- 100
2018-03-28 21:00:00 8.7 10 Noroeste 24 Oeste 3.4 -- -- 100
2018-03-28 20:00:00 9.2 7 Noroeste 17 Oeste 1.6 -- -- 97
2018-03-28 19:00:00 10.9 4 Noroeste 22 Nordeste 0 -- -- 81
2018-03-28 18:00:00 11.8 12 Nordeste 23 Nordeste 0 -- -- 76
2018-03-28 17:00:00 13.5 10 Nordeste 24 Norte 0 -- -- 73
2018-03-28 16:00:00 15.4 4 Este 12 Sudeste 0 -- -- 65
2018-03-28 15:00:00 15.2 4 Este 14 Oeste 0 -- -- 62
2018-03-28 14:00:00 15.4 7 Noroeste 17 Norte 0 -- -- 60
2018-03-28 13:00:00 13.4 4 Sudeste 9 Sudeste 0 -- -- 72
2018-03-28 12:00:00 12.8 4 Sudeste 17 Sudeste 0 -- -- 77
2018-03-28 11:00:00 11.4 8 Sudeste 15 Sudeste 0 -- -- 86
2018-03-28 10:00:00 8.8 5 Sudeste 9 Sudeste 0 -- -- 100
2018-03-28 09:00:00 8.2 0 Calma 5 Sudeste 0 -- -- 100
2018-03-28 08:00:00 8.3 3 Sudeste 6 Sudeste 0 -- -- 100
2018-03-28 07:00:00 8.4 0 Calma 0 Calma 0 -- -- 100
2018-03-28 06:00:00 8.3 0 Calma 0 Calma 0 -- -- 100
2018-03-28 05:00:00 8.5 0 Calma 0 Calma 0 -- -- 100
2018-03-28 04:00:00 8.6 0 Calma 3 Sudoeste 0 -- -- 100
2018-03-28 03:00:00 8.7 3 Sudoeste 4 Sudoeste 0 -- -- 100
2018-03-28 02:00:00 8.9 0 Calma 4 Norte 0 -- -- 100
2018-03-28 01:00:00 9 2 Noroeste 4 Noroeste 0 -- -- 100
2018-03-28 00:00:00 9.2 0 Calma 5 Nordeste 0 -- -- 100
2018-03-27 23:00:00 9.3 2 Noroeste 13 Oeste 0 -- -- 100
2018-03-27 22:00:00 9.5 6 Noroeste 22 Noroeste 0 -- -- 100
2018-03-27 21:00:00 9.8 6 Noroeste 19 Noroeste 0 -- -- 99
2018-03-27 20:00:00 10.6 7 Noroeste 21 Noroeste 0 -- -- 95
2018-03-27 19:00:00 11.7 6 Norte 15 Oeste 0 -- -- 91
2018-03-27 18:00:00 12.3 5 Norte 15 Norte 0 -- -- 92
2018-03-27 17:00:00 12.3 4 Noroeste 15 Norte 0 -- -- 90
2018-03-27 16:00:00 12.3 5 Oeste 17 Noroeste 0 -- -- 90
2018-03-27 15:00:00 10.5 4 Norte 16 Oeste 0 -- -- 98
2018-03-27 14:00:00 9.9 5 Noroeste 23 Noroeste 0 -- -- 100
2018-03-27 13:00:00 9.7 8 Noroeste 25 Noroeste 0 -- -- 100
2018-03-27 12:00:00 9.1 11 Noroeste 29 Oeste 0 -- -- 100
2018-03-27 11:00:00 8.3 11 Noroeste 30 Noroeste 0.4 -- -- 100
2018-03-27 10:00:00 8.1 10 Norte 32 Norte 1.2 -- -- 100
2018-03-27 09:00:00 8.3 12 Noroeste 37 Oeste 1 -- -- 100
2018-03-27 08:00:00 8.4 12 Noroeste 33 Noroeste 1.2 -- -- 100
2018-03-27 07:00:00 8.3 10 Noroeste 31 Noroeste 1.8 -- -- 100
2018-03-27 06:00:00 7.9 8 Noroeste 21 Norte 1 -- -- 100
2018-03-27 05:00:00 7.5 9 Noroeste 24 Oeste 0.2 -- -- 100
2018-03-27 04:00:00 6.1 4 Norte 9 Norte 1.4 -- -- 100
2018-03-27 03:00:00 5.7 3 Sudeste 9 Sudeste 1.2 -- -- 100
2018-03-27 02:00:00 5.8 0 Calma 6 Sudeste 0.2 -- -- 100
2018-03-27 01:00:00 5.8 3 Sudeste 6 Sudeste 0 -- -- 100
2018-03-27 00:00:00 5.8 0 Calma 8 Sudeste 0 -- -- 100
2018-03-26 23:00:00 5.9 2 Noroeste 5 Oeste 0 -- -- 100
2018-03-26 22:00:00 6 3 Oeste 14 Noroeste 0 -- -- 100
2018-03-26 21:00:00 6.1 5 Noroeste 9 Noroeste 0 -- -- 100
2018-03-26 20:00:00 6.5 4 Noroeste 12 Oeste 0 -- -- 97
2018-03-26 19:00:00 6.7 5 Norte 12 Oeste 0 -- -- 97
2018-03-26 18:00:00 6.7 5 Norte 26 Oeste 0.2 -- -- 98
2018-03-26 17:00:00 6.3 10 Noroeste 32 Noroeste 0 -- -- 98
2018-03-26 16:00:00 6 6 Norte 19 Nordeste 0.2 -- -- 100
2018-03-26 15:00:00 6.5 6 Norte 26 Noroeste 2.4 -- -- 100
2018-03-26 14:00:00 6.6 7 Noroeste 28 Oeste 0.2 -- -- 98
2018-03-26 13:00:00 6.5 9 Noroeste 23 Oeste 1 -- -- 98
2018-03-26 12:00:00 6.5 9 Noroeste 26 Noroeste 0 -- -- 96
2018-03-26 11:00:00 5.9 9 Noroeste 27 Noroeste 0.2 -- -- 99
2018-03-26 10:00:00 5.8 8 Noroeste 33 Noroeste 0 -- -- 98
2018-03-26 09:00:00 5.5 11 Noroeste 34 Oeste 0 -- -- 100
2018-03-26 08:00:00 5.5 10 Noroeste 27 Noroeste 1.4 -- -- 100
2018-03-26 07:00:00 5.9 10 Noroeste 27 Noroeste 0.6 -- -- 100
2018-03-26 06:00:00 6 8 Noroeste 26 Oeste 0.6 -- -- 100
2018-03-26 05:00:00 5.7 9 Noroeste 33 Norte 4.6 -- -- 100
2018-03-26 04:00:00 6.1 9 Noroeste 26 Noroeste 2 -- -- 100
2018-03-26 03:00:00 6.5 8 Noroeste 23 Noroeste 0.2 -- -- 100
2018-03-26 02:00:00 6.4 7 Noroeste 32 Noroeste 0.2 -- -- 100
2018-03-26 01:00:00 6.3 6 Noroeste 23 Oeste 0.6 -- -- 100
2018-03-26 00:00:00 6.2 8 Noroeste 23 Oeste 0 -- -- 100
2018-03-25 23:00:00 6 10 Noroeste 27 Oeste 3.2 -- -- 100
2018-03-25 22:00:00 5.9 10 Noroeste 32 Oeste 2.2 -- -- 100
2018-03-25 21:00:00 6 8 Noroeste 25 Oeste 1.2 -- -- 100
2018-03-25 20:00:00 6.1 10 Noroeste 24 Oeste 0 -- -- 100
2018-03-25 19:00:00 6.2 8 Noroeste 22 Noroeste 0.2 -- -- 100
2018-03-25 18:00:00 6.5 10 Noroeste 21 Oeste 0.6 -- -- 100
2018-03-25 17:00:00 6 5 Noroeste 17 Noroeste 0.6 -- -- 100
2018-03-25 16:00:00 5.6 6 Noroeste 30 Oeste 1.4 -- -- 100
2018-03-25 15:00:00 5.9 9 Noroeste 19 Norte 0.8 -- -- 100
2018-03-25 14:00:00 5.8 6 Noroeste 22 Noroeste 0.2 -- -- 100
2018-03-25 13:00:00 5.2 4 Norte 17 Noroeste 0.8 -- -- 100
2018-03-25 12:00:00 5 4 Norte 14 Oeste 0 -- -- 100
2018-03-25 11:00:00 4.2 5 Noroeste 19 Norte 0.6 -- -- 100
2018-03-25 10:00:00 3.7 6 Noroeste 17 Oeste 0.6 -- -- 100
2018-03-25 09:00:00 3.6 5 Norte 18 Norte 1 -- -- 100
2018-03-25 08:00:00 3.5 5 Norte 19 Oeste 0.2 -- -- 100
2018-03-25 07:00:00 3.2 6 Norte 22 Oeste 0.4 -- -- 100
2018-03-25 06:00:00 3.1 8 Norte 23 Noroeste 0.4 -- -- 100
2018-03-25 05:00:00 3.5 8 Norte 20 Norte 0.2 -- -- 100
2018-03-25 03:00:00 4 2 Nordeste 17 Noroeste 1.6 -- -- 100
2018-03-25 01:00:00 4.4 4 Norte 21 Noroeste 2.6 -- -- 100
2018-03-25 00:00:00 4.9 5 Norte 22 Noroeste 0.8 -- -- 100
2018-03-24 23:00:00 5 5 Norte 19 Noroeste 0.2 -- -- 100
2018-03-24 22:00:00 5.1 10 Noroeste 29 Oeste 2 -- -- 100
2018-03-24 21:00:00 5 5 Norte 19 Norte 2 -- -- 100
2018-03-24 20:00:00 4.9 5 Noroeste 28 Noroeste 3.4 -- -- 100
2018-03-24 19:00:00 5.1 8 Norte 23 Noroeste 0.6 -- -- 100
2018-03-24 18:00:00 5.4 8 Norte 34 Oeste 0.4 -- -- 98
2018-03-24 17:00:00 6.4 14 Noroeste 31 Norte 0.2 -- -- 97
2018-03-24 16:00:00 6.2 6 Norte 18 Noroeste 1.6 -- -- 99
2018-03-24 15:00:00 5.8 5 Norte 18 Noroeste 1.8 -- -- 95
2018-03-24 14:00:00 7.7 6 Norte 19 Noroeste 0 -- -- 71
2018-03-24 13:00:00 7.1 7 Noroeste 19 Nordeste 0 -- -- 74
2018-03-24 12:00:00 6.6 6 Norte 32 Noroeste 0 -- -- 75
2018-03-24 11:00:00 7 9 Noroeste 22 Noroeste 0 -- -- 69
2018-03-24 10:00:00 5.6 6 Sudeste 12 Sudoeste 0 -- -- 86
2018-03-24 09:00:00 5.3 3 Noroeste 14 Oeste 0 -- -- 84
2018-03-24 08:00:00 2.4 4 Sudoeste 13 Sudeste 0 -- -- 100
2018-03-24 07:00:00 2.2 0 Calma 7 Noroeste 0 -- -- 100
2018-03-24 06:00:00 1.8 4 Sudoeste 8 Sudoeste 0 -- -- 100
2018-03-24 05:00:00 1.9 4 Sudoeste 8 Oeste 0.2 -- -- 100
2018-03-24 04:00:00 3.1 2 Norte 7 Noroeste 0 -- -- 100
2018-03-24 03:00:00 3.7 2 Oeste 6 Sudoeste 0 -- -- 100
2018-03-24 02:00:00 4 2 Oeste 13 Noroeste 0.4 -- -- 100
2018-03-24 01:00:00 4.2 8 Norte 23 Norte 1.8 -- -- 100
2018-03-24 00:00:00 4.8 10 Noroeste 31 Norte 1.4 -- -- 100
2018-03-23 23:00:00 6 16 Noroeste 45 Norte 3.2 -- -- 96
2018-03-23 22:00:00 9.4 8 Norte 22 Noroeste 1 -- -- 84
2018-03-23 21:00:00 11.9 9 Norte 47 Oeste 0 -- -- 69
2018-03-23 20:00:00 11.9 5 Nordeste 22 Este 0 -- -- 72
2018-03-23 19:00:00 12.2 7 Nordeste 18 Sudeste 0 -- -- 73
2018-03-23 18:00:00 12.6 5 Nordeste 21 Sur 0 -- -- 68
2018-03-23 17:00:00 12.9 5 Sudeste 17 Sudeste 0 -- -- 65
2018-03-23 16:00:00 13 6 Sudeste 17 Sudeste 0 -- -- 66
2018-03-23 15:00:00 10.8 5 Sudeste 12 Sudeste 0 -- -- 85
2018-03-23 14:00:00 7.9 4 Sudeste 11 Sudeste 0 -- -- 100
2018-03-23 13:00:00 6.1 3 Sudeste 13 Sudeste 0 -- -- 100
2018-03-23 12:00:00 4.8 7 Sudeste 10 Sudeste 0.2 -- -- 100
2018-03-23 11:00:00 3.4 4 Sur 10 Sudeste 0.4 -- -- 100
2018-03-23 10:00:00 2.4 6 Sudeste 12 Sur 1.2 -- -- 100
2018-03-23 09:00:00 2.3 6 Sur 12 Sudeste 0.2 -- -- 90
2018-03-23 08:00:00 3.4 4 Sur 10 Sudeste 0 -- -- 76
2018-03-23 07:00:00 3.3 8 Sur 12 Sur 0 -- -- 73
2018-03-23 06:00:00 3.3 8 Sudeste 12 Sudeste 0 -- -- 71
2018-03-23 05:00:00 2.7 7 Sudeste 11 Sudeste 0 -- -- 74
2018-03-23 04:00:00 1.3 7 Sur 12 Sur 0 -- -- 86
2018-03-23 03:00:00 1.4 4 Sur 10 Sudeste 0 -- -- 83
2018-03-23 02:00:00 1.3 5 Sur 10 Sudeste 0 -- -- 85
2018-03-23 01:00:00 0.9 4 Sur 11 Sur 0 -- -- 88
2018-03-23 00:00:00 1.4 5 Sur 11 Sudeste 0 -- -- 85